createdAt,value
2019-03-15T00:01:31.690Z,94.90
2019-03-15T00:04:00.053Z,95.00
2019-03-15T00:06:28.504Z,94.80
2019-03-15T00:08:57.373Z,94.40
2019-03-15T00:11:26.044Z,94.50
2019-03-15T00:13:54.477Z,94.90
2019-03-15T00:16:24.105Z,94.80
2019-03-15T00:18:52.523Z,94.70
2019-03-15T00:21:20.953Z,94.90
2019-03-15T00:23:49.480Z,95.20
2019-03-15T00:26:17.937Z,95.40
2019-03-15T00:28:46.333Z,95.40
2019-03-15T00:31:14.726Z,95.30
2019-03-15T00:33:43.171Z,95.70
2019-03-15T00:36:11.619Z,95.60
2019-03-15T00:38:40.143Z,95.50
2019-03-15T00:41:08.517Z,95.60
2019-03-15T00:43:36.902Z,94.90
2019-03-15T00:46:05.322Z,95.00
2019-03-15T00:48:33.714Z,95.10
2019-03-15T00:51:02.106Z,95.40
2019-03-15T00:53:30.613Z,95.40
2019-03-15T00:56:00.689Z,95.60
2019-03-15T00:58:29.054Z,95.30
2019-03-15T01:00:59.124Z,95.50
2019-03-15T01:03:27.558Z,95.20
2019-03-15T01:05:56.112Z,94.80
2019-03-15T01:08:24.521Z,94.90
2019-03-15T01:10:52.861Z,95.00
2019-03-15T01:13:21.355Z,95.20
2019-03-15T01:15:49.753Z,95.20
2019-03-15T01:18:18.517Z,95.50
2019-03-15T01:20:47.052Z,95.60
2019-03-15T01:23:15.423Z,95.60
2019-03-15T01:25:43.799Z,95.90
2019-03-15T01:28:12.198Z,95.90
2019-03-15T01:30:40.630Z,96.00
2019-03-15T01:33:09.119Z,95.90
2019-03-15T01:35:37.527Z,95.90
2019-03-15T01:38:06.039Z,96.00
2019-03-15T01:40:34.428Z,96.30
2019-03-15T01:43:02.953Z,96.00
2019-03-15T01:45:32.254Z,95.90
2019-03-15T01:48:00.644Z,95.70
2019-03-15T01:50:29.012Z,95.80
2019-03-15T01:52:58.495Z,95.90
2019-03-15T01:55:26.949Z,95.90
2019-03-15T01:57:55.308Z,95.90
2019-03-15T02:00:23.726Z,95.60
2019-03-15T02:02:52.117Z,95.70
2019-03-15T02:05:20.571Z,95.90
2019-03-15T02:07:48.933Z,95.80
2019-03-15T02:10:17.329Z,95.90
2019-03-15T02:12:45.697Z,95.80
2019-03-15T02:15:14.106Z,96.00
2019-03-15T02:17:42.563Z,95.80
2019-03-15T02:20:10.923Z,95.80
2019-03-15T02:22:39.333Z,95.90
2019-03-15T02:25:08.159Z,96.00
2019-03-15T02:27:36.617Z,96.40
2019-03-15T02:30:08.003Z,96.70
2019-03-15T02:32:36.455Z,96.40
2019-03-15T02:35:05.683Z,96.40
2019-03-15T02:37:34.178Z,96.40
2019-03-15T02:40:02.561Z,96.40
2019-03-15T02:42:30.923Z,96.20
2019-03-15T02:44:59.323Z,96.10
2019-03-15T02:47:27.775Z,95.70
2019-03-15T02:49:56.171Z,96.10
2019-03-15T02:52:24.554Z,95.70
2019-03-15T02:54:54.537Z,95.80
2019-03-15T02:57:23.233Z,95.40
2019-03-15T02:59:51.680Z,95.50
2019-03-15T03:02:20.042Z,95.60
2019-03-15T03:04:48.932Z,95.50
2019-03-15T03:07:17.294Z,95.40
2019-03-15T03:09:45.672Z,95.70
2019-03-15T03:12:14.138Z,95.70
2019-03-15T03:14:42.526Z,96.00
2019-03-15T03:17:10.894Z,96.10
2019-03-15T03:19:39.274Z,96.10
2019-03-15T03:22:09.096Z,95.80
2019-03-15T03:24:37.760Z,95.70
2019-03-15T03:27:07.378Z,95.60
2019-03-15T03:29:35.982Z,95.90
2019-03-15T03:32:04.486Z,95.90
2019-03-15T03:34:32.862Z,95.60
2019-03-15T03:37:01.238Z,95.80
2019-03-15T03:39:29.699Z,95.90
2019-03-15T03:41:58.140Z,96.30
2019-03-15T03:44:26.493Z,96.20
2019-03-15T03:46:54.853Z,96.10
2019-03-15T03:49:23.313Z,95.90
2019-03-15T03:51:51.633Z,95.90
2019-03-15T03:54:20.014Z,95.90
2019-03-15T03:56:48.400Z,96.10
2019-03-15T03:59:16.934Z,95.90
2019-03-15T04:01:45.390Z,95.90
2019-03-15T04:04:13.775Z,96.20
2019-03-15T04:06:42.273Z,96.30
2019-03-15T04:09:10.714Z,96.00
2019-03-15T04:11:39.090Z,96.00
2019-03-15T04:14:07.502Z,96.10
2019-03-15T04:16:35.919Z,96.10
2019-03-15T04:19:04.286Z,95.90
2019-03-15T04:21:32.875Z,95.80
2019-03-15T04:24:02.019Z,95.70
2019-03-15T04:26:30.416Z,95.90
2019-03-15T04:28:58.789Z,96.00
2019-03-15T04:31:27.191Z,96.00
2019-03-15T04:33:55.617Z,96.10
2019-03-15T04:36:24.033Z,96.10
2019-03-15T04:38:52.402Z,96.20
2019-03-15T04:41:20.929Z,96.60
2019-03-15T04:43:49.343Z,96.10
2019-03-15T04:46:17.761Z,96.30
2019-03-15T04:48:46.174Z,96.10
2019-03-15T04:51:14.618Z,95.90
2019-03-15T04:53:43.066Z,96.00
2019-03-15T04:56:11.502Z,96.10
2019-03-15T04:58:39.900Z,96.20
2019-03-15T05:01:08.294Z,96.40
2019-03-15T05:03:36.590Z,96.60
2019-03-15T05:06:04.988Z,96.90
2019-03-15T05:08:33.458Z,97.00
2019-03-15T05:11:01.828Z,97.00
2019-03-15T05:13:30.187Z,96.90
2019-03-15T05:15:58.573Z,97.00
2019-03-15T05:18:26.933Z,96.90
2019-03-15T05:20:55.957Z,96.80
2019-03-15T05:23:24.316Z,97.00
2019-03-15T05:25:52.774Z,97.00
2019-03-15T05:28:21.149Z,96.70
2019-03-15T05:30:49.460Z,96.70
2019-03-15T05:33:17.837Z,96.40
2019-03-15T05:35:46.210Z,96.40
2019-03-15T05:38:16.706Z,96.60
2019-03-15T05:40:45.058Z,96.90
2019-03-15T05:43:13.450Z,96.80
2019-03-15T05:45:41.826Z,96.60
2019-03-15T05:48:10.208Z,96.60
2019-03-15T05:50:40.781Z,96.70
2019-03-15T05:53:08.678Z,96.70
2019-03-15T05:55:37.252Z,96.50
2019-03-15T05:58:05.621Z,96.30
2019-03-15T06:00:37.383Z,96.40
2019-03-15T06:03:05.762Z,96.20
2019-03-15T06:05:34.180Z,96.30
2019-03-15T06:08:02.658Z,96.20
2019-03-15T06:10:31.030Z,96.40
2019-03-15T06:12:59.317Z,96.50
2019-03-15T06:15:27.713Z,96.60
2019-03-15T06:17:56.075Z,96.10
2019-03-15T06:20:24.533Z,96.40
2019-03-15T06:22:52.923Z,96.30
2019-03-15T06:25:21.411Z,96.20
2019-03-15T06:27:49.837Z,96.60
2019-03-15T06:30:18.234Z,96.50
2019-03-15T06:32:48.337Z,96.20
2019-03-15T06:35:16.731Z,95.90
2019-03-15T06:37:45.121Z,95.70
2019-03-15T06:40:14.081Z,96.00
2019-03-15T06:42:42.478Z,95.80
2019-03-15T06:45:12.507Z,95.80
2019-03-15T06:47:40.918Z,95.80
2019-03-15T06:50:09.370Z,95.70
2019-03-15T06:52:37.830Z,95.70
2019-03-15T06:55:07.992Z,95.70
2019-03-15T06:57:36.450Z,95.70
2019-03-15T07:00:12.820Z,95.80
2019-03-15T07:02:41.250Z,95.40
2019-03-15T07:05:12.211Z,95.50
2019-03-15T07:07:39.784Z,95.10
2019-03-15T07:10:09.413Z,95.20
2019-03-15T07:12:40.219Z,95.00
2019-03-15T07:15:12.737Z,95.10
2019-03-15T07:17:41.752Z,95.00
2019-03-15T07:20:15.023Z,94.50
2019-03-15T07:22:43.554Z,94.50
2019-03-15T07:25:12.032Z,94.40
2019-03-15T07:27:42.629Z,94.20
2019-03-15T07:30:13.697Z,94.30
2019-03-15T07:32:42.086Z,94.30
2019-03-15T07:35:10.485Z,93.80
2019-03-15T07:37:38.857Z,94.10
2019-03-15T07:40:11.340Z,93.30
2019-03-15T07:42:39.115Z,93.20
2019-03-15T07:45:09.542Z,93.40
2019-03-15T07:47:37.925Z,93.30
2019-03-15T07:50:09.246Z,93.10
2019-03-15T07:52:37.634Z,92.90
2019-03-15T07:55:08.034Z,92.90
2019-03-15T07:57:36.422Z,93.30
2019-03-15T08:00:08.160Z,92.80
2019-03-15T08:02:36.491Z,93.00
2019-03-15T08:05:05.218Z,93.10
2019-03-15T08:07:36.555Z,93.10
2019-03-15T08:10:05.264Z,92.80
2019-03-15T08:12:33.665Z,92.60
2019-03-15T08:15:02.045Z,92.60
2019-03-15T08:17:30.493Z,93.10
2019-03-15T08:19:58.776Z,92.70
2019-03-15T08:22:27.129Z,92.60
2019-03-15T08:24:55.477Z,92.30
2019-03-15T08:27:23.897Z,92.40
2019-03-15T08:29:53.165Z,92.80
2019-03-15T08:32:21.579Z,93.30
2019-03-15T08:34:50.007Z,93.30
2019-03-15T08:37:18.454Z,92.50
2019-03-15T08:39:47.002Z,92.50
2019-03-15T08:42:15.476Z,93.30
2019-03-15T08:44:43.851Z,93.20
2019-03-15T08:47:12.214Z,92.90
2019-03-15T08:49:40.598Z,92.80
2019-03-15T08:52:09.114Z,93.40
2019-03-15T08:54:37.479Z,93.40
2019-03-15T08:57:05.883Z,93.20
2019-03-15T08:59:34.238Z,93.10
2019-03-15T09:02:02.680Z,92.80
2019-03-15T09:04:31.128Z,92.80
2019-03-15T09:06:59.497Z,92.60
2019-03-15T09:09:28.824Z,92.40
2019-03-15T09:11:57.273Z,92.70
2019-03-15T09:14:25.673Z,93.40
2019-03-15T09:16:54.099Z,93.10
2019-03-15T09:19:22.465Z,92.70
2019-03-15T09:21:50.973Z,93.40
2019-03-15T09:24:19.385Z,93.00
2019-03-15T09:26:47.765Z,92.20
2019-03-15T09:29:16.191Z,92.90
2019-03-15T09:31:48.159Z,93.10
2019-03-15T09:34:15.064Z,93.10
2019-03-15T09:36:49.850Z,93.20
2019-03-15T09:39:13.509Z,93.30
2019-03-15T09:41:41.947Z,93.30
2019-03-15T09:44:10.362Z,93.30
2019-03-15T09:46:38.766Z,93.40
2019-03-15T09:49:07.178Z,93.50
2019-03-15T09:51:35.542Z,93.70
2019-03-15T09:54:03.960Z,94.10
2019-03-15T09:56:32.387Z,93.50
2019-03-15T09:59:00.741Z,93.40
2019-03-15T10:01:35.169Z,94.00
2019-03-15T10:03:59.135Z,93.90
2019-03-15T10:06:27.535Z,93.80
2019-03-15T10:08:55.898Z,93.20
2019-03-15T10:11:24.463Z,93.10
2019-03-15T10:13:52.973Z,93.60
2019-03-15T10:16:21.405Z,93.40
2019-03-15T10:18:50.663Z,93.00
2019-03-15T10:21:19.078Z,93.30
2019-03-15T10:23:47.438Z,92.20
2019-03-15T10:26:15.854Z,92.10
2019-03-15T10:28:44.270Z,91.30
2019-03-15T10:31:12.702Z,90.50
2019-03-15T10:33:50.442Z,90.80
2019-03-15T10:36:12.091Z,91.20
2019-03-15T10:38:40.522Z,91.60
2019-03-15T10:41:08.892Z,90.30
2019-03-15T10:43:37.283Z,89.70
2019-03-15T10:46:06.297Z,90.60
2019-03-15T10:48:34.821Z,90.50
2019-03-15T10:51:03.300Z,91.10
2019-03-15T10:53:31.669Z,90.60
2019-03-15T10:56:00.755Z,90.60
2019-03-15T10:58:29.195Z,90.60
2019-03-15T11:00:59.199Z,91.00
2019-03-15T11:03:27.639Z,91.00
2019-03-15T11:05:56.069Z,91.00
2019-03-15T11:08:24.442Z,90.70
2019-03-15T11:10:52.797Z,91.40
2019-03-15T11:13:21.191Z,91.40
2019-03-15T11:15:49.750Z,91.20
2019-03-15T11:18:18.111Z,90.80
2019-03-15T11:20:46.521Z,91.30
2019-03-15T11:23:14.882Z,91.20
2019-03-15T11:25:43.250Z,90.70
2019-03-15T11:28:11.654Z,90.90
2019-03-15T11:30:40.018Z,90.90
2019-03-15T11:33:08.578Z,91.30
2019-03-15T11:35:37.087Z,91.00
2019-03-15T11:38:05.441Z,91.10
2019-03-15T11:40:33.866Z,91.50
2019-03-15T11:43:02.209Z,91.30
2019-03-15T11:45:30.598Z,91.40
2019-03-15T11:48:04.130Z,91.80
2019-03-15T11:50:29.027Z,91.10
2019-03-15T11:52:57.477Z,91.10
2019-03-15T11:55:25.929Z,90.80
2019-03-15T11:57:54.297Z,90.70
2019-03-15T12:00:22.673Z,90.60
2019-03-15T12:02:51.129Z,90.50
2019-03-15T12:05:19.642Z,90.40
2019-03-15T12:07:48.014Z,90.30
2019-03-15T12:10:17.019Z,90.80
2019-03-15T12:12:45.406Z,90.70
2019-03-15T12:15:18.783Z,91.40
2019-03-15T12:17:47.266Z,91.10
2019-03-15T12:20:15.632Z,91.60
2019-03-15T12:22:44.123Z,91.20
2019-03-15T12:25:12.758Z,91.10
2019-03-15T12:27:41.090Z,91.60
2019-03-15T12:30:16.477Z,91.20
2019-03-15T12:32:44.897Z,90.60
2019-03-15T12:35:15.369Z,89.70
2019-03-15T12:37:43.817Z,89.90
2019-03-15T12:40:18.454Z,90.20
2019-03-15T12:42:46.979Z,90.00
2019-03-15T12:45:15.675Z,89.10
2019-03-15T12:47:44.991Z,89.10
2019-03-15T12:50:14.114Z,89.40
2019-03-15T12:52:47.495Z,89.10
2019-03-15T12:55:13.446Z,90.10
2019-03-15T12:57:41.899Z,89.40
2019-03-15T13:00:15.239Z,90.00
2019-03-15T13:02:44.170Z,88.00
2019-03-15T13:05:12.614Z,89.30
2019-03-15T13:07:41.003Z,89.60
2019-03-15T13:10:12.049Z,86.90
2019-03-15T13:12:40.414Z,87.20
2019-03-15T13:15:11.252Z,88.40
2019-03-15T13:17:39.650Z,87.70
2019-03-15T13:20:11.456Z,89.50
2019-03-15T13:22:39.835Z,88.50
2019-03-15T13:25:10.835Z,88.60
2019-03-15T13:27:39.220Z,89.40
2019-03-15T13:30:10.930Z,90.40
2019-03-15T13:32:39.336Z,90.50
2019-03-15T13:35:08.063Z,91.00
2019-03-15T13:37:36.449Z,90.50
2019-03-15T13:40:17.896Z,84.90
2019-03-15T13:42:47.244Z,78.70
2019-03-15T13:45:16.353Z,76.30
2019-03-15T13:47:47.554Z,71.00
2019-03-15T13:50:19.733Z,69.20
2019-03-15T13:52:49.057Z,69.40
2019-03-15T13:55:17.425Z,68.00
2019-03-15T13:57:45.858Z,69.70
2019-03-15T14:00:17.966Z,70.70
2019-03-15T14:02:46.397Z,70.90
2019-03-15T14:05:14.768Z,73.00
2019-03-15T14:07:45.266Z,73.40
2019-03-15T14:10:15.737Z,75.20
2019-03-15T14:12:44.190Z,77.70
2019-03-15T14:15:13.638Z,76.90
2019-03-15T14:17:42.014Z,77.80
2019-03-15T14:20:12.322Z,78.10
2019-03-15T14:22:42.435Z,79.30
2019-03-15T14:25:19.620Z,81.60
2019-03-15T14:27:48.017Z,82.10
2019-03-15T14:30:16.407Z,82.50
2019-03-15T14:32:44.846Z,82.60
2019-03-15T14:35:14.344Z,83.30
2019-03-15T14:37:42.791Z,80.70
2019-03-15T14:40:12.221Z,78.00
2019-03-15T14:42:41.040Z,72.90
2019-03-15T14:45:12.133Z,69.30
2019-03-15T14:47:40.619Z,69.20
2019-03-15T14:50:10.135Z,72.10
2019-03-15T14:52:38.754Z,73.50
2019-03-15T14:55:09.129Z,73.90
2019-03-15T14:57:50.682Z,75.40
2019-03-15T15:00:15.258Z,81.50
2019-03-15T15:02:43.652Z,83.80
2019-03-15T15:05:12.407Z,85.90
2019-03-15T15:07:41.185Z,85.00
2019-03-15T15:10:13.363Z,86.30
2019-03-15T15:12:41.070Z,85.70
2019-03-15T15:15:14.379Z,86.40
2019-03-15T15:17:42.775Z,86.90
2019-03-15T15:20:11.924Z,88.60
2019-03-15T15:22:40.366Z,87.70
2019-03-15T15:25:13.860Z,86.50
2019-03-15T15:27:42.179Z,86.30
2019-03-15T15:30:12.295Z,86.70
2019-03-15T15:32:40.807Z,87.10
2019-03-15T15:35:10.781Z,87.60
2019-03-15T15:37:40.051Z,87.60
2019-03-15T15:40:16.781Z,87.60
2019-03-15T15:42:45.283Z,86.60
2019-03-15T15:45:14.087Z,87.00
2019-03-15T15:47:42.477Z,88.40
2019-03-15T15:50:31.943Z,88.40
2019-03-15T15:53:00.366Z,88.20
2019-03-15T15:55:28.731Z,87.90
2019-03-15T15:57:57.186Z,87.70
2019-03-15T16:00:26.053Z,87.30
2019-03-15T16:02:54.427Z,87.50
2019-03-15T16:05:22.879Z,87.50
2019-03-15T16:07:53.035Z,88.40
2019-03-15T16:10:23.102Z,88.80
2019-03-15T16:12:53.260Z,89.10
2019-03-15T16:15:21.609Z,88.10
2019-03-15T16:18:11.037Z,88.60
2019-03-15T16:20:39.419Z,89.70
2019-03-15T16:23:07.872Z,88.20
2019-03-15T16:25:36.247Z,91.20
2019-03-15T16:28:04.641Z,87.90
2019-03-15T16:30:33.006Z,87.80
2019-03-15T16:33:01.463Z,89.10
2019-03-15T16:35:29.875Z,88.80
2019-03-15T16:38:00.639Z,89.10
2019-03-15T16:40:29.061Z,89.90
2019-03-15T16:42:59.537Z,90.00
2019-03-15T16:45:32.486Z,90.40
2019-03-15T16:48:01.211Z,90.60
2019-03-15T16:50:29.689Z,90.90
2019-03-15T16:52:58.148Z,90.30
2019-03-15T16:55:26.615Z,91.10
2019-03-15T16:57:54.967Z,90.70
2019-03-15T17:00:23.629Z,91.00
2019-03-15T17:02:52.062Z,90.70
2019-03-15T17:05:20.473Z,90.70
2019-03-15T17:07:52.970Z,91.00
2019-03-15T17:10:20.660Z,91.30
2019-03-15T17:12:50.582Z,91.60
2019-03-15T17:15:21.183Z,91.70
2019-03-15T17:17:49.669Z,91.90
2019-03-15T17:20:18.043Z,92.20
2019-03-15T17:22:46.431Z,92.30
2019-03-15T17:25:17.550Z,92.40
2019-03-15T17:27:46.219Z,92.50
2019-03-15T17:30:15.556Z,92.60
2019-03-15T17:32:44.038Z,92.50
2019-03-15T17:35:13.960Z,92.70
2019-03-15T17:37:42.894Z,93.00
2019-03-15T17:40:16.346Z,93.00
2019-03-15T17:42:44.757Z,93.00
2019-03-15T17:45:13.201Z,93.10
2019-03-15T17:47:41.584Z,93.40
2019-03-15T17:50:23.225Z,93.80
2019-03-15T17:52:53.789Z,94.10
2019-03-15T17:55:22.250Z,94.20
2019-03-15T17:57:51.109Z,94.30
2019-03-15T18:00:45.116Z,94.40
2019-03-15T18:03:21.391Z,94.60
2019-03-15T18:05:46.294Z,94.80
2019-03-15T18:08:18.843Z,94.90
2019-03-15T18:10:45.117Z,95.00
2019-03-15T18:13:13.774Z,98.70
2019-03-15T18:15:42.222Z,97.40
2019-03-15T18:18:10.655Z,96.50
2019-03-15T18:20:39.105Z,96.10
2019-03-15T18:23:07.417Z,96.00
2019-03-15T18:25:36.252Z,96.30
2019-03-15T18:28:04.762Z,96.30
2019-03-15T18:30:33.234Z,96.60
2019-03-15T18:33:01.966Z,96.90
2019-03-15T18:35:34.435Z,96.90
2019-03-15T18:38:02.954Z,97.10
2019-03-15T18:40:31.467Z,97.30
2019-03-15T18:42:59.856Z,97.30
2019-03-15T18:45:28.427Z,96.90
2019-03-15T18:47:57.306Z,96.90
2019-03-15T18:50:27.120Z,97.00
2019-03-15T18:52:57.169Z,97.20
2019-03-15T18:55:25.710Z,97.20
2019-03-15T18:57:54.376Z,97.30
2019-03-15T19:00:24.871Z,97.30
2019-03-15T19:02:53.197Z,97.40
2019-03-15T19:05:22.601Z,97.50
2019-03-15T19:07:51.445Z,97.50
2019-03-15T19:10:19.907Z,97.40
2019-03-15T19:12:48.290Z,97.20
2019-03-15T19:15:20.770Z,97.10
2019-03-15T19:17:49.137Z,97.10
2019-03-15T19:20:17.582Z,97.20
2019-03-15T19:22:46.003Z,97.30
2019-03-15T19:25:15.242Z,97.20
2019-03-15T19:27:43.565Z,97.30
2019-03-15T19:30:15.261Z,97.30
2019-03-15T19:32:43.663Z,97.20
2019-03-15T19:35:12.034Z,96.90
2019-03-15T19:37:41.285Z,97.00
2019-03-15T19:40:17.886Z,96.60
2019-03-15T19:42:47.272Z,96.70
2019-03-15T19:45:16.302Z,96.70
2019-03-15T19:47:44.757Z,96.40
2019-03-15T19:50:15.621Z,96.40
2019-03-15T19:52:44.016Z,96.60
2019-03-15T19:55:13.687Z,96.50
2019-03-15T19:57:42.098Z,96.20
2019-03-15T20:00:20.407Z,96.50
2019-03-15T20:02:46.477Z,96.50
2019-03-15T20:05:14.792Z,96.50
2019-03-15T20:07:43.565Z,96.30
2019-03-15T20:10:16.347Z,96.40
2019-03-15T20:12:43.965Z,96.60
2019-03-15T20:15:16.095Z,96.70
2019-03-15T20:17:43.752Z,96.50
2019-03-15T20:20:13.649Z,96.50
2019-03-15T20:22:42.057Z,96.50
2019-03-15T20:25:12.280Z,96.10
2019-03-15T20:27:40.627Z,96.30
2019-03-15T20:30:21.309Z,96.50
2019-03-15T20:32:42.195Z,96.60
2019-03-15T20:35:10.658Z,96.50
2019-03-15T20:37:39.078Z,96.20
2019-03-15T20:40:10.689Z,96.30
2019-03-15T20:42:39.994Z,96.60
2019-03-15T20:45:17.458Z,96.70
2019-03-15T20:47:46.195Z,96.60
2019-03-15T20:50:16.205Z,96.60
2019-03-15T20:52:44.718Z,96.40
2019-03-15T20:55:13.166Z,96.50
2019-03-15T20:57:41.658Z,96.50
2019-03-15T21:00:18.034Z,96.90
2019-03-15T21:02:46.459Z,96.50
2019-03-15T21:05:15.003Z,96.70
2019-03-15T21:07:45.003Z,96.70
2019-03-15T21:10:17.322Z,96.90
2019-03-15T21:12:45.038Z,97.00
2019-03-15T21:15:14.308Z,97.10
2019-03-15T21:17:42.661Z,97.10
2019-03-15T21:20:13.277Z,97.20
2019-03-15T21:22:41.678Z,97.10
2019-03-15T21:25:10.619Z,96.80
2019-03-15T21:27:52.573Z,96.80
2019-03-15T21:30:17.484Z,96.50
2019-03-15T21:32:45.970Z,96.40
2019-03-15T21:35:14.458Z,96.40
2019-03-15T21:37:45.294Z,96.50
2019-03-15T21:40:15.862Z,96.50
2019-03-15T21:42:44.257Z,96.30
2019-03-15T21:45:12.642Z,96.40
2019-03-15T21:47:40.935Z,96.50
2019-03-15T21:50:11.859Z,96.70
2019-03-15T21:52:40.315Z,96.70
2019-03-15T21:55:08.716Z,96.90
2019-03-15T21:57:37.103Z,96.80
2019-03-15T22:00:08.787Z,96.90
2019-03-15T22:02:37.160Z,96.90
2019-03-15T22:05:07.029Z,97.10
2019-03-15T22:07:35.481Z,97.30
2019-03-15T22:10:13.856Z,97.40
2019-03-15T22:12:42.313Z,97.40
2019-03-15T22:15:12.572Z,97.40
2019-03-15T22:17:41.274Z,97.60
2019-03-15T22:20:17.493Z,97.40
2019-03-15T22:22:45.883Z,97.50
2019-03-15T22:25:14.382Z,97.40
2019-03-15T22:27:42.751Z,97.50
2019-03-15T22:30:14.856Z,97.50
2019-03-15T22:32:43.414Z,97.60
2019-03-15T22:35:13.106Z,97.70
2019-03-15T22:37:41.506Z,97.70
2019-03-15T22:40:13.732Z,97.80
2019-03-15T22:42:43.782Z,97.80
2019-03-15T22:45:13.107Z,97.80
2019-03-15T22:47:42.167Z,97.70
2019-03-15T22:50:14.095Z,97.40
2019-03-15T22:52:42.436Z,97.40
2019-03-15T22:55:11.174Z,97.40
2019-03-15T22:57:39.755Z,97.40
2019-03-15T23:00:14.023Z,97.20
2019-03-15T23:02:42.504Z,97.40
2019-03-15T23:05:10.939Z,97.30
2019-03-15T23:07:39.348Z,97.20
2019-03-15T23:10:09.377Z,97.30
2019-03-15T23:12:37.747Z,97.20
2019-03-15T23:15:10.664Z,97.10
2019-03-15T23:17:39.032Z,97.30
2019-03-15T23:20:14.373Z,97.30
2019-03-15T23:22:42.818Z,97.40
2019-03-15T23:25:11.141Z,97.50
2019-03-15T23:27:39.540Z,97.50
2019-03-15T23:30:13.737Z,97.50
2019-03-15T23:32:42.090Z,97.60
2019-03-15T23:35:10.482Z,97.60
2019-03-15T23:37:39.958Z,98.00
2019-03-15T23:40:10.778Z,97.80
2019-03-15T23:42:39.251Z,97.70
2019-03-15T23:45:13.620Z,97.30
2019-03-15T23:47:41.968Z,96.90
2019-03-15T23:50:12.049Z,96.70
2019-03-15T23:52:41.350Z,97.00
2019-03-15T23:55:09.755Z,97.10
2019-03-15T23:57:38.169Z,97.00
